createdAt,value
2024-02-24T00:00:22.059Z,25.33
2024-02-24T00:01:23.891Z,26.52
2024-02-24T00:02:25.503Z,25.75
2024-02-24T00:03:27.035Z,24.42
2024-02-24T00:04:30.236Z,23.73
2024-02-24T00:05:31.857Z,23.83
2024-02-24T00:06:33.497Z,27.38
2024-02-24T00:07:35.100Z,26.45
2024-02-24T00:08:36.755Z,26.77
2024-02-24T00:09:38.408Z,24.52
2024-02-24T00:10:40.040Z,24.67
2024-02-24T00:11:44.589Z,24.73
2024-02-24T00:12:46.259Z,24.85
2024-02-24T00:13:48.119Z,24.30
2024-02-24T00:14:49.704Z,25.38
2024-02-24T00:15:51.379Z,29.27
2024-02-24T00:16:53.137Z,27.08
2024-02-24T00:17:54.858Z,26.65
2024-02-24T00:18:57.755Z,26.75
2024-02-24T00:19:59.327Z,28.73
2024-02-24T00:21:00.915Z,29.25
2024-02-24T00:22:02.519Z,30.45
2024-02-24T00:23:04.360Z,29.58
2024-02-24T00:24:06.426Z,28.13
2024-02-24T00:25:08.017Z,28.60
2024-02-24T00:26:09.591Z,29.92
2024-02-24T00:27:11.173Z,29.73
2024-02-24T00:28:12.761Z,28.50
2024-02-24T00:29:14.401Z,27.83
2024-02-24T00:30:16.676Z,30.02
2024-02-24T00:31:18.339Z,32.15
2024-02-24T00:32:20.125Z,29.30
2024-02-24T00:33:21.840Z,27.95
2024-02-24T00:34:23.403Z,28.00
2024-02-24T00:35:29.288Z,27.63
2024-02-24T00:36:31.003Z,26.63
2024-02-24T00:37:32.644Z,28.45
2024-02-24T00:38:34.242Z,27.45
2024-02-24T00:39:35.781Z,26.63
2024-02-24T00:40:37.326Z,26.42
2024-02-24T00:41:38.950Z,27.73
2024-02-24T00:42:40.558Z,27.10
2024-02-24T00:43:45.074Z,37.22
2024-02-24T00:44:46.692Z,40.88
2024-02-24T00:45:48.776Z,42.80
2024-02-24T00:46:50.351Z,43.08
2024-02-24T00:47:52.097Z,42.70
2024-02-24T00:48:53.724Z,44.10
2024-02-24T00:49:55.290Z,45.45
2024-02-24T00:50:56.891Z,46.40
2024-02-24T00:51:58.446Z,45.28
2024-02-24T00:53:00.058Z,43.67
2024-02-24T00:54:01.742Z,42.90
2024-02-24T00:55:03.716Z,46.33
2024-02-24T00:56:05.852Z,40.78
2024-02-24T00:57:07.551Z,35.55
2024-02-24T00:58:09.110Z,26.88
2024-02-24T00:59:10.648Z,27.90
2024-02-24T01:00:12.602Z,27.23
2024-02-24T01:01:14.392Z,28.02
2024-02-24T01:02:16.039Z,27.20
2024-02-24T01:03:17.661Z,28.60
2024-02-24T01:04:21.481Z,27.67
2024-02-24T01:05:25.143Z,26.48
2024-02-24T01:06:26.750Z,25.40
2024-02-24T01:07:28.297Z,26.98
2024-02-24T01:08:29.935Z,25.27
2024-02-24T01:09:31.582Z,25.63
2024-02-24T01:10:33.202Z,26.85
2024-02-24T01:11:34.869Z,31.58
2024-02-24T01:12:36.671Z,31.67
2024-02-24T01:13:38.395Z,45.88
2024-02-24T01:14:40.387Z,46.78
2024-02-24T01:15:41.980Z,33.25
2024-02-24T01:16:45.663Z,27.85
2024-02-24T01:17:48.054Z,28.90
2024-02-24T01:18:52.438Z,29.15
2024-02-24T01:19:54.114Z,27.58
2024-02-24T01:20:56.231Z,26.33
2024-02-24T01:21:58.689Z,28.17
2024-02-24T01:23:01.601Z,28.77
2024-02-24T01:24:03.463Z,30.30
2024-02-24T01:25:05.457Z,32.10
2024-02-24T01:26:06.980Z,30.85
2024-02-24T01:27:08.574Z,32.53
2024-02-24T01:28:10.137Z,44.55
2024-02-24T01:29:11.720Z,36.00
2024-02-24T01:30:13.415Z,27.20
2024-02-24T01:31:15.034Z,26.98
2024-02-24T01:32:18.091Z,25.35
2024-02-24T01:33:19.814Z,24.20
2024-02-24T01:34:21.672Z,23.98
2024-02-24T01:35:23.333Z,23.98
2024-02-24T01:36:27.866Z,23.50
2024-02-24T01:37:29.495Z,23.63
2024-02-24T01:38:31.123Z,22.48
2024-02-24T01:39:33.540Z,23.17
2024-02-24T01:40:35.176Z,24.10
2024-02-24T01:41:36.831Z,23.60
2024-02-24T01:42:38.466Z,23.73
2024-02-24T01:43:40.054Z,23.95
2024-02-24T01:44:41.638Z,24.85
2024-02-24T01:45:43.308Z,24.45
2024-02-24T01:46:48.730Z,32.03
2024-02-24T01:47:51.945Z,52.28
2024-02-24T01:48:53.825Z,39.00
2024-02-24T01:49:56.738Z,30.45
2024-02-24T01:50:59.966Z,28.33
2024-02-24T01:52:02.044Z,27.48
2024-02-24T01:53:04.750Z,27.95
2024-02-24T01:54:07.002Z,26.70
2024-02-24T01:55:09.216Z,25.08
2024-02-24T01:56:11.428Z,25.42
2024-02-24T01:57:13.772Z,25.15
2024-02-24T01:58:18.433Z,25.92
2024-02-24T01:59:20.087Z,25.85
2024-02-24T02:00:21.767Z,25.45
2024-02-24T02:01:23.644Z,24.20
2024-02-24T02:02:25.272Z,24.40
2024-02-24T02:03:27.457Z,24.58
2024-02-24T02:04:29.221Z,24.20
2024-02-24T02:05:30.988Z,25.58
2024-02-24T02:06:33.814Z,23.83
2024-02-24T02:07:36.610Z,24.17
2024-02-24T02:08:38.556Z,25.38
2024-02-24T02:10:12.465Z,24.40
2024-02-24T02:11:14.164Z,23.52
2024-02-24T02:12:15.869Z,23.50
2024-02-24T02:13:19.096Z,24.15
2024-02-24T02:14:20.726Z,24.00
2024-02-24T02:15:22.412Z,25.13
2024-02-24T02:16:24.270Z,24.33
2024-02-24T02:17:25.942Z,24.75
2024-02-24T02:18:28.977Z,23.75
2024-02-24T02:19:31.810Z,24.05
2024-02-24T02:20:34.446Z,24.58
2024-02-24T02:21:38.400Z,23.95
2024-02-24T02:22:39.969Z,23.42
2024-02-24T02:23:41.618Z,22.38
2024-02-24T02:24:47.000Z,23.67
2024-02-24T02:25:48.589Z,23.67
2024-02-24T02:26:50.247Z,23.50
2024-02-24T02:27:51.787Z,23.80
2024-02-24T02:28:53.326Z,22.88
2024-02-24T02:29:54.860Z,22.52
2024-02-24T02:30:56.838Z,23.05
2024-02-24T02:31:59.150Z,21.98
2024-02-24T02:33:01.200Z,21.80
2024-02-24T02:34:02.986Z,23.08
2024-02-24T02:35:06.243Z,22.85
2024-02-24T02:36:08.131Z,24.48
2024-02-24T02:37:09.731Z,22.92
2024-02-24T02:38:11.687Z,23.90
2024-02-24T02:39:13.456Z,22.88
2024-02-24T02:40:15.844Z,23.05
2024-02-24T02:41:17.469Z,22.90
2024-02-24T02:42:19.087Z,22.65
2024-02-24T02:43:20.764Z,23.73
2024-02-24T02:44:22.635Z,23.73
2024-02-24T02:45:24.325Z,23.33
2024-02-24T02:46:25.926Z,23.52
2024-02-24T02:47:27.723Z,23.88
2024-02-24T02:48:29.461Z,23.85
2024-02-24T02:49:31.315Z,25.38
2024-02-24T02:50:32.975Z,25.70
2024-02-24T02:51:34.518Z,26.00
2024-02-24T02:52:36.286Z,25.75
2024-02-24T02:53:37.895Z,23.55
2024-02-24T02:54:39.535Z,22.63
2024-02-24T02:55:41.329Z,24.10
2024-02-24T02:56:42.986Z,23.52
2024-02-24T02:57:45.234Z,23.60
2024-02-24T02:58:46.812Z,23.98
2024-02-24T02:59:48.461Z,23.15
2024-02-24T03:00:50.141Z,23.42
2024-02-24T03:01:52.861Z,24.83
2024-02-24T03:02:54.840Z,25.83
2024-02-24T03:03:56.649Z,25.10
2024-02-24T03:04:58.592Z,24.30
2024-02-24T03:06:02.450Z,25.38
2024-02-24T03:07:04.151Z,25.13
2024-02-24T03:08:05.936Z,24.38
2024-02-24T03:09:07.492Z,25.42
2024-02-24T03:10:09.569Z,25.45
2024-02-24T03:11:18.507Z,24.63
2024-02-24T03:12:20.255Z,26.55
2024-02-24T03:13:21.882Z,26.02
2024-02-24T03:14:23.466Z,24.50
2024-02-24T03:15:25.049Z,24.25
2024-02-24T03:16:26.615Z,24.02
2024-02-24T03:17:28.254Z,23.90
2024-02-24T03:18:29.937Z,23.88
2024-02-24T03:19:31.686Z,23.70
2024-02-24T03:20:33.425Z,23.65
2024-02-24T03:21:35.130Z,22.30
2024-02-24T03:22:39.293Z,23.65
2024-02-24T03:23:40.840Z,22.30
2024-02-24T03:24:43.390Z,21.95
2024-02-24T03:25:45.024Z,25.80
2024-02-24T03:26:48.047Z,26.67
2024-02-24T03:27:49.882Z,22.45
2024-02-24T03:28:51.620Z,22.15
2024-02-24T03:29:53.206Z,20.92
2024-02-24T03:30:54.747Z,20.75
2024-02-24T03:31:56.313Z,19.98
2024-02-24T03:32:58.064Z,19.98
2024-02-24T03:33:59.882Z,20.23
2024-02-24T03:35:01.785Z,20.75
2024-02-24T03:36:03.697Z,21.38
2024-02-24T03:37:05.610Z,21.23
2024-02-24T03:38:07.181Z,21.10
2024-02-24T03:39:08.857Z,21.10
2024-02-24T03:40:13.025Z,19.10
2024-02-24T03:41:14.896Z,19.30
2024-02-24T03:42:16.488Z,21.85
2024-02-24T03:43:18.000Z,19.88
2024-02-24T03:44:19.702Z,22.15
2024-02-24T03:45:21.369Z,20.75
2024-02-24T03:46:22.929Z,20.67
2024-02-24T03:47:24.532Z,20.50
2024-02-24T03:48:26.264Z,21.70
2024-02-24T03:49:28.599Z,24.52
2024-02-24T03:50:30.265Z,23.80
2024-02-24T03:51:31.883Z,24.77
2024-02-24T03:52:33.635Z,25.00
2024-02-24T03:53:35.198Z,22.67
2024-02-24T03:54:36.773Z,24.95
2024-02-24T03:55:38.300Z,25.08
2024-02-24T03:56:39.988Z,24.45
2024-02-24T03:57:41.641Z,32.67
2024-02-24T03:58:43.551Z,32.38
2024-02-24T03:59:45.272Z,27.15
2024-02-24T04:00:46.896Z,24.20
2024-02-24T04:01:48.518Z,22.70
2024-02-24T04:02:50.124Z,22.30
2024-02-24T04:03:55.266Z,22.73
2024-02-24T04:04:56.830Z,22.55
2024-02-24T04:05:58.601Z,24.45
2024-02-24T04:07:00.331Z,21.58
2024-02-24T04:08:02.152Z,22.08
2024-02-24T04:09:04.863Z,22.45
2024-02-24T04:10:07.091Z,22.42
2024-02-24T04:11:08.779Z,22.33
2024-02-24T04:12:10.718Z,23.00
2024-02-24T04:13:12.442Z,22.15
2024-02-24T04:14:14.000Z,22.25
2024-02-24T04:15:21.514Z,21.63
2024-02-24T04:16:23.066Z,21.50
2024-02-24T04:17:24.707Z,22.48
2024-02-24T04:18:26.484Z,21.33
2024-02-24T04:19:28.158Z,21.58
2024-02-24T04:20:29.885Z,22.33
2024-02-24T04:21:31.456Z,24.02
2024-02-24T04:22:33.080Z,21.73
2024-02-24T04:23:34.780Z,23.85
2024-02-24T04:24:36.397Z,23.02
2024-02-24T04:25:37.984Z,23.80
2024-02-24T04:26:39.562Z,22.02
2024-02-24T04:27:41.230Z,22.00
2024-02-24T04:28:42.765Z,22.08
2024-02-24T04:29:44.348Z,21.63
2024-02-24T04:30:45.946Z,21.38
2024-02-24T04:31:48.150Z,22.35
2024-02-24T04:32:49.875Z,22.27
2024-02-24T04:33:51.644Z,21.55
2024-02-24T04:34:53.251Z,22.10
2024-02-24T04:35:54.845Z,22.08
2024-02-24T04:36:56.419Z,21.73
2024-02-24T04:37:57.926Z,20.98
2024-02-24T04:38:59.470Z,21.52
2024-02-24T04:40:01.010Z,21.80
2024-02-24T04:41:02.657Z,21.60
2024-02-24T04:42:04.644Z,23.00
2024-02-24T04:43:06.235Z,21.60
2024-02-24T04:44:07.940Z,22.67
2024-02-24T04:45:10.082Z,24.67
2024-02-24T04:46:12.107Z,26.60
2024-02-24T04:47:13.808Z,25.25
2024-02-24T04:48:15.571Z,24.40
2024-02-24T04:49:17.337Z,23.40
2024-02-24T04:50:19.116Z,22.73
2024-02-24T04:51:22.038Z,22.65
2024-02-24T04:52:23.704Z,23.80
2024-02-24T04:53:25.372Z,22.58
2024-02-24T04:54:27.036Z,24.90
2024-02-24T04:55:28.641Z,24.15
2024-02-24T04:56:30.232Z,24.17
2024-02-24T04:57:31.863Z,23.25
2024-02-24T04:58:33.415Z,23.42
2024-02-24T04:59:36.399Z,23.20
2024-02-24T05:00:38.043Z,23.52
2024-02-24T05:01:39.612Z,24.80
2024-02-24T05:02:41.248Z,24.65
2024-02-24T05:03:42.847Z,26.20
2024-02-24T05:04:44.449Z,25.80
2024-02-24T05:05:46.161Z,26.10
2024-02-24T05:06:47.803Z,25.35
2024-02-24T05:07:49.423Z,26.75
2024-02-24T05:08:51.123Z,24.60
2024-02-24T05:09:52.738Z,24.35
2024-02-24T05:10:54.378Z,23.92
2024-02-24T05:11:56.030Z,25.05
2024-02-24T05:12:57.593Z,24.65
2024-02-24T05:13:59.151Z,23.55
2024-02-24T05:15:00.773Z,23.35
2024-02-24T05:16:06.150Z,23.70
2024-02-24T05:17:12.236Z,24.50
2024-02-24T05:18:14.466Z,28.23
2024-02-24T05:19:16.216Z,27.08
2024-02-24T05:20:17.903Z,24.13
2024-02-24T05:21:22.910Z,24.35
2024-02-24T05:22:24.699Z,25.13
2024-02-24T05:23:26.444Z,26.13
2024-02-24T05:24:28.048Z,26.70
2024-02-24T05:25:31.649Z,25.27
2024-02-24T05:26:33.371Z,23.30
2024-02-24T05:27:35.003Z,23.48
2024-02-24T05:28:36.564Z,23.58
2024-02-24T05:29:38.143Z,26.25
2024-02-24T05:30:39.740Z,25.60
2024-02-24T05:31:41.393Z,24.88
2024-02-24T05:32:42.967Z,25.90
2024-02-24T05:33:44.912Z,24.48
2024-02-24T05:34:46.657Z,24.80
2024-02-24T05:35:48.457Z,23.45
2024-02-24T05:36:50.206Z,22.77
2024-02-24T05:37:51.754Z,22.45
2024-02-24T05:38:53.440Z,23.73
2024-02-24T05:39:55.182Z,23.13
2024-02-24T05:40:56.719Z,23.20
2024-02-24T05:41:58.302Z,23.50
2024-02-24T05:42:59.836Z,21.67
2024-02-24T05:44:01.422Z,22.85
2024-02-24T05:45:03.695Z,22.15
2024-02-24T05:46:07.839Z,21.05
2024-02-24T05:47:09.606Z,23.63
2024-02-24T05:48:11.422Z,24.60
2024-02-24T05:49:13.223Z,23.55
2024-02-24T05:50:14.802Z,24.45
2024-02-24T05:51:17.972Z,23.27
2024-02-24T05:52:19.948Z,24.08
2024-02-24T05:53:22.211Z,23.23
2024-02-24T05:54:24.341Z,24.45
2024-02-24T05:55:26.011Z,26.70
2024-02-24T05:56:27.610Z,26.63
2024-02-24T05:57:29.331Z,26.38
2024-02-24T05:58:31.792Z,23.13
2024-02-24T05:59:33.513Z,24.98
2024-02-24T06:00:35.392Z,23.48
2024-02-24T06:01:37.013Z,22.55
2024-02-24T06:02:39.281Z,21.50
2024-02-24T06:03:40.935Z,21.40
2024-02-24T06:04:42.496Z,21.10
2024-02-24T06:05:44.118Z,21.50
2024-02-24T06:06:49.001Z,20.42
2024-02-24T06:07:52.630Z,19.42
2024-02-24T06:08:54.699Z,20.67
2024-02-24T06:09:56.298Z,19.13
2024-02-24T06:10:57.901Z,20.95
2024-02-24T06:11:59.544Z,20.65
2024-02-24T06:13:02.265Z,21.33
2024-02-24T06:14:03.874Z,21.15
2024-02-24T06:15:05.913Z,22.00
2024-02-24T06:16:08.299Z,19.80
2024-02-24T06:17:12.334Z,18.85
2024-02-24T06:18:16.857Z,19.30
2024-02-24T06:19:18.663Z,19.20
2024-02-24T06:20:24.657Z,18.75
2024-02-24T06:21:29.583Z,18.95
2024-02-24T06:22:31.105Z,18.15
2024-02-24T06:23:32.739Z,17.73
2024-02-24T06:24:34.367Z,18.15
2024-02-24T06:25:35.925Z,17.63
2024-02-24T06:26:37.540Z,18.13
2024-02-24T06:27:39.098Z,18.27
2024-02-24T06:28:40.648Z,17.80
2024-02-24T06:29:43.108Z,17.27
2024-02-24T06:30:46.631Z,19.60
2024-02-24T06:31:48.175Z,19.98
2024-02-24T06:32:49.936Z,19.10
2024-02-24T06:33:51.658Z,18.90
2024-02-24T06:34:53.431Z,17.05
2024-02-24T06:35:55.254Z,18.13
2024-02-24T06:36:56.875Z,16.73
2024-02-24T06:37:58.622Z,16.95
2024-02-24T06:39:00.220Z,17.13
2024-02-24T06:40:01.850Z,17.35
2024-02-24T06:41:04.221Z,18.40
2024-02-24T06:42:05.852Z,17.52
2024-02-24T06:43:07.401Z,20.17
2024-02-24T06:44:08.985Z,18.83
2024-02-24T06:45:10.611Z,19.00
2024-02-24T06:46:12.607Z,18.17
2024-02-24T06:47:24.598Z,16.70
2024-02-24T06:48:30.742Z,16.50
2024-02-24T06:49:32.647Z,16.70
2024-02-24T06:50:34.397Z,17.23
2024-02-24T06:51:36.098Z,15.23
2024-02-24T06:52:37.810Z,16.70
2024-02-24T06:53:39.787Z,17.05
2024-02-24T06:54:41.617Z,16.65
2024-02-24T06:55:43.170Z,16.15
2024-02-24T06:56:44.836Z,16.63
2024-02-24T06:57:46.743Z,16.20
2024-02-24T06:58:48.314Z,16.55
2024-02-24T06:59:49.967Z,16.45
2024-02-24T07:00:51.767Z,16.73
2024-02-24T07:01:55.898Z,16.13
2024-02-24T07:02:57.653Z,15.90
2024-02-24T07:03:59.521Z,17.38
2024-02-24T07:05:03.510Z,16.83
2024-02-24T07:06:05.698Z,16.67
2024-02-24T07:07:08.981Z,16.75
2024-02-24T07:08:10.716Z,16.80
2024-02-24T07:09:12.422Z,14.80
2024-02-24T07:10:14.159Z,14.88
2024-02-24T07:11:15.845Z,16.30
2024-02-24T07:12:17.632Z,15.93
2024-02-24T07:13:19.195Z,16.48
2024-02-24T07:14:21.972Z,16.10
2024-02-24T07:15:25.106Z,16.20
2024-02-24T07:16:26.662Z,14.23
2024-02-24T07:17:29.247Z,14.52
2024-02-24T07:18:31.007Z,14.82
2024-02-24T07:19:32.792Z,14.07
2024-02-24T07:20:34.402Z,13.85
2024-02-24T07:21:42.217Z,13.88
2024-02-24T07:22:43.864Z,12.45
2024-02-24T07:23:45.468Z,11.60
2024-02-24T07:24:47.291Z,11.45
2024-02-24T07:25:48.903Z,12.25
2024-02-24T07:26:51.110Z,11.32
2024-02-24T07:27:52.820Z,13.02
2024-02-24T07:28:54.416Z,11.00
2024-02-24T07:29:56.137Z,10.50
2024-02-24T07:30:57.881Z,10.55
2024-02-24T07:31:59.505Z,9.88
2024-02-24T07:33:01.957Z,10.60
2024-02-24T07:34:04.816Z,9.40
2024-02-24T07:35:07.163Z,9.80
2024-02-24T07:36:08.904Z,10.60
2024-02-24T07:37:10.515Z,9.98
2024-02-24T07:38:12.099Z,9.63
2024-02-24T07:39:13.709Z,10.00
2024-02-24T07:40:15.367Z,9.50
2024-02-24T07:41:16.932Z,9.98
2024-02-24T07:42:18.514Z,9.23
2024-02-24T07:43:20.115Z,9.90
2024-02-24T07:44:21.782Z,10.02
2024-02-24T07:45:23.792Z,9.10
2024-02-24T07:46:30.444Z,8.80
2024-02-24T07:47:32.356Z,8.93
2024-02-24T07:48:34.080Z,8.57
2024-02-24T07:49:36.828Z,9.57
2024-02-24T07:50:38.578Z,9.07
2024-02-24T07:51:40.326Z,8.93
2024-02-24T07:52:42.755Z,8.32
2024-02-24T07:53:45.246Z,8.02
2024-02-24T07:54:47.071Z,8.05
2024-02-24T07:55:48.821Z,8.77
2024-02-24T07:56:50.563Z,8.80
2024-02-24T07:57:52.155Z,8.18
2024-02-24T07:58:53.959Z,8.90
2024-02-24T07:59:56.623Z,8.57
2024-02-24T08:00:58.217Z,9.15
2024-02-24T08:01:59.837Z,8.80
2024-02-24T08:03:01.686Z,9.20
2024-02-24T08:04:03.876Z,9.35
2024-02-24T08:05:05.931Z,8.40
2024-02-24T08:06:07.868Z,8.40
2024-02-24T08:07:09.551Z,8.93
2024-02-24T08:08:11.239Z,8.63
2024-02-24T08:09:12.837Z,9.10
2024-02-24T08:10:14.559Z,8.40
2024-02-24T08:11:16.172Z,8.55
2024-02-24T08:12:17.856Z,7.63
2024-02-24T08:13:19.680Z,8.48
2024-02-24T08:14:21.321Z,8.00
2024-02-24T08:15:22.881Z,7.72
2024-02-24T08:16:24.456Z,7.38
2024-02-24T08:17:26.180Z,7.13
2024-02-24T08:18:28.126Z,6.65
2024-02-24T08:19:34.758Z,7.13
2024-02-24T08:20:36.913Z,5.85
2024-02-24T08:21:39.278Z,6.32
2024-02-24T08:22:41.346Z,7.32
2024-02-24T08:23:43.749Z,7.65
2024-02-24T08:24:45.347Z,6.93
2024-02-24T08:25:46.942Z,7.60
2024-02-24T08:26:49.536Z,7.40
2024-02-24T08:27:51.261Z,7.50
2024-02-24T08:28:53.140Z,7.70
2024-02-24T08:29:54.876Z,6.20
2024-02-24T08:30:57.205Z,7.10
2024-02-24T08:31:59.521Z,7.07
2024-02-24T08:33:01.196Z,7.40
2024-02-24T08:34:03.507Z,7.65
2024-02-24T08:35:05.641Z,7.53
2024-02-24T08:36:07.747Z,7.13
2024-02-24T08:37:09.863Z,7.28
2024-02-24T08:38:11.515Z,7.88
2024-02-24T08:39:13.189Z,7.30
2024-02-24T08:40:14.816Z,7.10
2024-02-24T08:41:17.382Z,6.80
2024-02-24T08:42:18.985Z,6.00
2024-02-24T08:43:20.507Z,6.82
2024-02-24T08:44:22.110Z,5.93
2024-02-24T08:45:23.695Z,6.10
2024-02-24T08:46:25.613Z,5.95
2024-02-24T08:47:27.538Z,6.15
2024-02-24T08:48:29.698Z,6.22
2024-02-24T08:49:31.417Z,6.25
2024-02-24T08:50:33.076Z,6.40
2024-02-24T08:51:34.748Z,6.45
2024-02-24T08:52:43.155Z,7.00
2024-02-24T08:53:51.589Z,7.15
2024-02-24T08:54:53.503Z,6.63
2024-02-24T08:55:55.116Z,6.10
2024-02-24T08:56:56.707Z,6.70
2024-02-24T08:57:58.486Z,7.38
2024-02-24T08:59:00.086Z,6.85
2024-02-24T09:00:01.674Z,7.10
2024-02-24T09:01:03.408Z,7.05
2024-02-24T09:02:05.687Z,6.78
2024-02-24T09:03:07.295Z,7.60
2024-02-24T09:04:08.979Z,6.72
2024-02-24T09:05:10.810Z,6.78
2024-02-24T09:06:12.573Z,7.30
2024-02-24T09:07:14.343Z,6.88
2024-02-24T09:08:16.318Z,7.53
2024-02-24T09:09:18.016Z,7.45
2024-02-24T09:10:19.640Z,7.47
2024-02-24T09:11:21.321Z,7.40
2024-02-24T09:12:23.074Z,6.90
2024-02-24T09:13:24.836Z,7.03
2024-02-24T09:14:26.418Z,7.78
2024-02-24T09:15:31.154Z,6.95
2024-02-24T09:16:33.847Z,6.35
2024-02-24T09:17:35.539Z,6.85
2024-02-24T09:18:37.334Z,6.70
2024-02-24T09:19:39.086Z,6.90
2024-02-24T09:20:40.738Z,6.35
2024-02-24T09:21:46.142Z,6.20
2024-02-24T09:22:48.794Z,6.60
2024-02-24T09:23:50.621Z,6.50
2024-02-24T09:24:52.250Z,6.63
2024-02-24T09:25:53.867Z,6.57
2024-02-24T09:26:55.409Z,6.63
2024-02-24T09:27:56.982Z,6.32
2024-02-24T09:28:58.542Z,5.65
2024-02-24T09:30:00.229Z,5.57
2024-02-24T09:31:02.262Z,5.68
2024-02-24T09:32:03.969Z,5.93
2024-02-24T09:33:05.688Z,4.80
2024-02-24T09:34:09.827Z,5.82
2024-02-24T09:35:12.492Z,6.05
2024-02-24T09:36:14.041Z,6.45
2024-02-24T09:37:15.601Z,6.07
2024-02-24T09:38:17.360Z,5.45
2024-02-24T09:39:18.914Z,5.93
2024-02-24T09:40:20.611Z,5.50
2024-02-24T09:41:22.308Z,5.07
2024-02-24T09:42:27.768Z,4.90
2024-02-24T09:43:29.757Z,5.60
2024-02-24T09:44:31.443Z,5.50
2024-02-24T09:45:43.034Z,4.97
2024-02-24T09:46:45.226Z,4.68
2024-02-24T09:47:46.911Z,4.57
2024-02-24T09:48:49.965Z,5.18
2024-02-24T09:49:53.526Z,4.55
2024-02-24T09:50:55.345Z,5.38
2024-02-24T09:51:57.262Z,5.90
2024-02-24T09:52:58.966Z,6.10
2024-02-24T09:54:00.579Z,5.55
2024-02-24T09:55:04.312Z,5.40
2024-02-24T09:56:06.973Z,5.63
2024-02-24T09:57:10.791Z,5.68
2024-02-24T09:58:12.665Z,5.32
2024-02-24T09:59:14.526Z,5.22
2024-02-24T10:00:16.360Z,5.68
2024-02-24T10:01:19.026Z,6.15
2024-02-24T10:02:20.792Z,5.78
2024-02-24T10:03:23.275Z,6.32
2024-02-24T10:04:25.462Z,6.22
2024-02-24T10:05:27.640Z,5.50
2024-02-24T10:06:29.536Z,5.05
2024-02-24T10:07:31.650Z,4.60
2024-02-24T10:08:33.244Z,5.07
2024-02-24T10:09:34.918Z,4.93
2024-02-24T10:10:37.642Z,4.95
2024-02-24T10:11:40.879Z,4.57
2024-02-24T10:13:05.979Z,4.05
2024-02-24T10:14:07.757Z,4.30
2024-02-24T10:15:09.868Z,3.95
2024-02-24T10:16:11.571Z,3.67
2024-02-24T10:17:15.321Z,3.42
2024-02-24T10:18:19.845Z,3.08
2024-02-24T10:19:23.789Z,3.30
2024-02-24T10:20:26.904Z,3.30
2024-02-24T10:21:28.542Z,3.00
2024-02-24T10:22:30.092Z,3.58
2024-02-24T10:23:31.692Z,3.13
2024-02-24T10:24:35.345Z,3.05
2024-02-24T10:25:37.080Z,3.65
2024-02-24T10:26:38.852Z,3.28
2024-02-24T10:27:40.482Z,2.92
2024-02-24T10:28:42.382Z,2.65
2024-02-24T10:29:51.041Z,3.17
2024-02-24T10:30:53.466Z,3.60
2024-02-24T10:31:55.524Z,2.97
2024-02-24T10:33:00.271Z,2.70
2024-02-24T10:34:02.473Z,2.72
2024-02-24T10:35:04.776Z,3.40
2024-02-24T10:36:09.619Z,2.78
2024-02-24T10:37:11.378Z,2.70
2024-02-24T10:38:23.560Z,2.75
2024-02-24T10:39:37.242Z,2.40
2024-02-24T10:40:39.414Z,2.80
2024-02-24T10:41:42.364Z,2.28
2024-02-24T10:42:44.750Z,2.58
2024-02-24T10:43:51.187Z,2.72
2024-02-24T10:44:53.616Z,2.50
2024-02-24T10:45:55.147Z,3.13
2024-02-24T10:46:56.684Z,2.65
2024-02-24T10:47:58.259Z,2.78
2024-02-24T10:49:00.909Z,3.00
2024-02-24T10:50:04.778Z,3.17
2024-02-24T10:51:06.521Z,2.78
2024-02-24T10:52:09.610Z,3.22
2024-02-24T10:53:15.111Z,3.40
2024-02-24T10:54:22.731Z,3.08
2024-02-24T10:55:24.789Z,3.45
2024-02-24T10:56:26.932Z,3.10
2024-02-24T10:57:29.584Z,3.25
2024-02-24T10:58:33.068Z,3.20
2024-02-24T10:59:35.095Z,3.00
2024-02-24T11:00:37.307Z,2.70
2024-02-24T11:01:48.370Z,3.22
2024-02-24T11:02:51.786Z,3.15
2024-02-24T11:03:55.155Z,2.60
2024-02-24T11:05:01.809Z,2.38
2024-02-24T11:06:03.719Z,2.85
2024-02-24T11:07:18.289Z,2.50
2024-02-24T11:08:39.482Z,2.50
2024-02-24T11:09:41.269Z,2.45
2024-02-24T11:10:43.278Z,2.20
2024-02-24T11:11:45.148Z,2.45
2024-02-24T11:12:50.572Z,2.63
2024-02-24T11:14:00.323Z,2.60
2024-02-24T11:15:17.043Z,2.60
2024-02-24T11:16:21.533Z,2.38
2024-02-24T11:17:45.903Z,2.72
2024-02-24T11:18:50.336Z,2.35
2024-02-24T11:19:52.031Z,2.85
2024-02-24T11:20:54.387Z,2.75
2024-02-24T11:21:59.555Z,2.72
2024-02-24T11:23:24.384Z,2.60
2024-02-24T11:24:34.337Z,2.72
2024-02-24T11:25:35.880Z,2.10
2024-02-24T11:26:38.710Z,3.00
2024-02-24T11:27:41.905Z,2.90
2024-02-24T11:29:00.048Z,3.50
2024-02-24T11:30:35.375Z,3.17
2024-02-24T11:31:38.194Z,3.10
2024-02-24T11:32:39.834Z,3.30
2024-02-24T11:33:41.619Z,2.92
2024-02-24T11:34:45.889Z,3.10
2024-02-24T11:35:50.489Z,2.95
2024-02-24T11:36:52.577Z,3.00
2024-02-24T11:37:55.044Z,3.30
2024-02-24T11:38:58.614Z,3.15
2024-02-24T11:40:00.611Z,3.08
2024-02-24T11:41:06.632Z,3.45
2024-02-24T11:42:11.217Z,3.17
2024-02-24T11:43:13.407Z,3.75
2024-02-24T11:44:15.087Z,3.67
2024-02-24T11:45:16.916Z,4.10
2024-02-24T11:46:18.475Z,3.35
2024-02-24T11:47:20.570Z,3.97
2024-02-24T11:48:23.094Z,3.60
2024-02-24T11:49:25.153Z,3.92
2024-02-24T11:50:26.802Z,3.83
2024-02-24T11:51:29.317Z,3.30
2024-02-24T11:52:31.106Z,3.50
2024-02-24T11:53:33.435Z,3.50
2024-02-24T11:54:37.029Z,3.63
2024-02-24T11:55:38.715Z,3.28
2024-02-24T11:56:40.696Z,3.15
2024-02-24T11:57:42.690Z,3.30
2024-02-24T11:58:44.592Z,3.28
2024-02-24T11:59:49.345Z,2.40
2024-02-24T12:00:50.945Z,2.63
2024-02-24T12:01:53.170Z,2.53
2024-02-24T12:02:56.478Z,3.00
2024-02-24T12:03:59.068Z,2.70
2024-02-24T12:05:14.595Z,2.45
2024-02-24T12:06:17.364Z,2.80
2024-02-24T12:07:19.844Z,2.72
2024-02-24T12:08:23.170Z,2.85
2024-02-24T12:09:25.504Z,2.70
2024-02-24T12:10:27.276Z,2.90
2024-02-24T12:11:29.169Z,2.70
2024-02-24T12:12:30.875Z,2.80
2024-02-24T12:13:32.431Z,2.70
2024-02-24T12:14:34.056Z,2.83
2024-02-24T12:15:36.812Z,2.60
2024-02-24T12:16:39.398Z,2.33
2024-02-24T12:17:48.386Z,2.85
2024-02-24T12:18:50.212Z,2.10
2024-02-24T12:19:51.856Z,2.50
2024-02-24T12:20:56.367Z,2.80
2024-02-24T12:21:58.007Z,2.33
2024-02-24T12:23:04.833Z,2.85
2024-02-24T12:24:06.608Z,2.80
2024-02-24T12:25:17.466Z,2.58
2024-02-24T12:26:19.279Z,2.53
2024-02-24T12:27:23.110Z,2.80
2024-02-24T12:28:25.393Z,2.42
2024-02-24T12:29:29.059Z,2.78
2024-02-24T12:30:39.271Z,2.42
2024-02-24T12:31:41.306Z,2.70
2024-02-24T12:32:44.268Z,2.50
2024-02-24T12:33:47.014Z,2.70
2024-02-24T12:34:48.783Z,2.70
2024-02-24T12:35:50.545Z,2.95
2024-02-24T12:36:57.201Z,2.83
2024-02-24T12:37:59.030Z,3.00
2024-02-24T12:39:00.694Z,3.17
2024-02-24T12:40:05.324Z,3.15
2024-02-24T12:41:08.861Z,2.58
2024-02-24T12:42:10.444Z,2.70
2024-02-24T12:43:12.552Z,2.70
2024-02-24T12:44:14.201Z,2.63
2024-02-24T12:45:15.760Z,2.50
2024-02-24T12:46:20.702Z,2.90
2024-02-24T12:47:22.461Z,2.75
2024-02-24T12:48:24.207Z,2.70
2024-02-24T12:49:25.967Z,3.13
2024-02-24T12:50:29.225Z,2.90
2024-02-24T12:51:31.002Z,2.45
2024-02-24T12:52:35.853Z,2.70
2024-02-24T12:53:37.652Z,2.50
2024-02-24T12:54:39.267Z,3.28
2024-02-24T12:55:42.107Z,2.72
2024-02-24T12:56:43.715Z,2.90
2024-02-24T12:57:45.638Z,2.83
2024-02-24T12:58:47.221Z,2.88
2024-02-24T12:59:48.795Z,2.85
2024-02-24T13:00:52.529Z,2.88
2024-02-24T13:01:54.105Z,2.40
2024-02-24T13:03:00.457Z,2.60
2024-02-24T13:04:02.247Z,2.85
2024-02-24T13:05:05.024Z,2.60
2024-02-24T13:06:06.860Z,2.35
2024-02-24T13:07:08.664Z,2.70
2024-02-24T13:08:10.255Z,2.55
2024-02-24T13:09:11.886Z,2.45
2024-02-24T13:10:13.678Z,2.65
2024-02-24T13:11:15.400Z,2.42
2024-02-24T13:12:17.743Z,2.55
2024-02-24T13:13:19.358Z,2.70
2024-02-24T13:14:20.910Z,2.88
2024-02-24T13:15:24.676Z,2.47
2024-02-24T13:16:26.208Z,2.35
2024-02-24T13:17:27.933Z,2.60
2024-02-24T13:18:29.882Z,2.55
2024-02-24T13:19:31.623Z,2.13
2024-02-24T13:20:33.197Z,2.53
2024-02-24T13:21:34.919Z,2.40
2024-02-24T13:22:42.142Z,2.20
2024-02-24T13:23:43.974Z,2.80
2024-02-24T13:24:46.152Z,2.80
2024-02-24T13:25:47.696Z,3.00
2024-02-24T13:26:49.347Z,3.35
2024-02-24T13:27:50.984Z,2.85
2024-02-24T13:28:52.892Z,2.40
2024-02-24T13:29:55.379Z,2.35
2024-02-24T13:30:57.041Z,2.63
2024-02-24T13:31:58.996Z,2.50
2024-02-24T13:33:01.557Z,2.63
2024-02-24T13:34:03.356Z,2.67
2024-02-24T13:35:05.401Z,2.78
2024-02-24T13:36:07.955Z,3.00
2024-02-24T13:37:10.903Z,3.90